sensor_id;sensor_type;location;lat;lon;timestamp;pressure;altitude;pressure_sealevel;temperature;humidity
80712;BME280;70078;51.596;5.678;2023-10-31T00:00:42;99514.69;;;10.18;91.44
80712;BME280;70078;51.596;5.678;2023-10-31T00:03:08;99526.63;;;10.22;91.35
80712;BME280;70078;51.596;5.678;2023-10-31T00:05:33;99526.63;;;10.22;91.63
80712;BME280;70078;51.596;5.678;2023-10-31T00:07:58;99547.84;;;10.30;91.75
80712;BME280;70078;51.596;5.678;2023-10-31T00:10:23;99590.59;;;10.50;92.31
80712;BME280;70078;51.596;5.678;2023-10-31T00:12:49;99590.81;;;10.48;92.02
80712;BME280;70078;51.596;5.678;2023-10-31T00:15:14;99547.50;;;10.18;92.36
80712;BME280;70078;51.596;5.678;2023-10-31T00:17:39;99576.19;;;10.38;92.17
80712;BME280;70078;51.596;5.678;2023-10-31T00:20:05;99559.91;;;10.26;91.85
80712;BME280;70078;51.596;5.678;2023-10-31T00:22:31;99576.41;;;10.36;91.96
80712;BME280;70078;51.596;5.678;2023-10-31T00:24:57;99592.91;;;10.53;91.92
80712;BME280;70078;51.596;5.678;2023-10-31T00:27:22;99531.09;;;10.15;92.22
80712;BME280;70078;51.596;5.678;2023-10-31T00:29:47;99543.41;;;10.16;92.10
80712;BME280;70078;51.596;5.678;2023-10-31T00:32:13;99576.00;;;10.39;91.89
80712;BME280;70078;51.596;5.678;2023-10-31T00:34:38;99569.16;;;10.30;92.47
80712;BME280;70078;51.596;5.678;2023-10-31T00:37:03;99604.41;;;10.53;92.50
80712;BME280;70078;51.596;5.678;2023-10-31T00:39:29;99608.31;;;10.57;92.33
80712;BME280;70078;51.596;5.678;2023-10-31T00:41:54;99619.63;;;10.60;92.54
80712;BME280;70078;51.596;5.678;2023-10-31T00:44:19;99538.66;;;10.11;92.46
80712;BME280;70078;51.596;5.678;2023-10-31T00:47:00;99582.16;;;10.40;92.82
80712;BME280;70078;51.596;5.678;2023-10-31T00:49:26;99572.88;;;10.29;92.91
80712;BME280;70078;51.596;5.678;2023-10-31T00:51:51;99573.06;;;10.34;92.66
80712;BME280;70078;51.596;5.678;2023-10-31T00:54:17;99623.53;;;10.64;92.22
80712;BME280;70078;51.596;5.678;2023-10-31T00:56:42;99555.78;;;10.23;92.00
80712;BME280;70078;51.596;5.678;2023-10-31T00:59:07;99552.03;;;10.18;91.95
80712;BME280;70078;51.596;5.678;2023-10-31T01:01:32;99627.03;;;10.64;92.23
80712;BME280;70078;51.596;5.678;2023-10-31T01:03:58;99594.81;;;10.31;91.99
80712;BME280;70078;51.596;5.678;2023-10-31T01:06:23;99628.06;;;10.63;91.70
80712;BME280;70078;51.596;5.678;2023-10-31T01:08:49;99610.09;;;10.44;91.94
80712;BME280;70078;51.596;5.678;2023-10-31T01:11:14;99643.84;;;10.58;91.44
80712;BME280;70078;51.596;5.678;2023-10-31T01:13:39;99651.47;;;10.61;91.27
80712;BME280;70078;51.596;5.678;2023-10-31T01:16:05;99623.44;;;10.44;91.05
80712;BME280;70078;51.596;5.678;2023-10-31T01:18:30;99612.47;;;10.32;91.10
80712;BME280;70078;51.596;5.678;2023-10-31T01:20:58;99612.91;;;10.36;91.24
80712;BME280;70078;51.596;5.678;2023-10-31T01:23:24;99651.66;;;10.60;91.36
80712;BME280;70078;51.596;5.678;2023-10-31T01:25:49;99638.84;;;10.48;91.40
80712;BME280;70078;51.596;5.678;2023-10-31T01:28:17;99635.09;;;10.36;91.63
80712;BME280;70078;51.596;5.678;2023-10-31T01:30:43;99646.16;;;10.40;91.53
80712;BME280;70078;51.596;5.678;2023-10-31T01:33:08;99642.44;;;10.34;91.57
80712;BME280;70078;51.596;5.678;2023-10-31T01:35:33;99637.69;;;10.30;92.06
80712;BME280;70078;51.596;5.678;2023-10-31T01:37:59;99668.84;;;10.50;91.93
80712;BME280;70078;51.596;5.678;2023-10-31T01:40:24;99669.25;;;10.54;92.20
80712;BME280;70078;51.596;5.678;2023-10-31T01:42:49;99641.41;;;10.35;92.40
80712;BME280;70078;51.596;5.678;2023-10-31T01:45:15;99617.88;;;10.17;92.26
80712;BME280;70078;51.596;5.678;2023-10-31T01:47:40;99662.47;;;10.51;92.25
80712;BME280;70078;51.596;5.678;2023-10-31T01:50:06;99628.81;;;10.22;92.42
80712;BME280;70078;51.596;5.678;2023-10-31T01:52:32;99667.16;;;10.43;92.15
80712;BME280;70078;51.596;5.678;2023-10-31T01:54:58;99678.28;;;10.53;92.34
80712;BME280;70078;51.596;5.678;2023-10-31T01:57:23;99655.63;;;10.42;91.87
80712;BME280;70078;51.596;5.678;2023-10-31T01:59:49;99678.50;;;10.51;91.94
80712;BME280;70078;51.596;5.678;2023-10-31T02:02:15;99682.81;;;10.52;92.11
80712;BME280;70078;51.596;5.678;2023-10-31T02:04:44;99664.84;;;10.40;92.49
80712;BME280;70078;51.596;5.678;2023-10-31T02:07:09;99631.00;;;10.19;92.33
80712;BME280;70078;51.596;5.678;2023-10-31T02:09:34;99678.66;;;10.43;92.57
80712;BME280;70078;51.596;5.678;2023-10-31T02:12:00;99679.94;;;10.54;92.74
80712;BME280;70078;51.596;5.678;2023-10-31T02:14:25;99674.81;;;10.52;92.71
80712;BME280;70078;51.596;5.678;2023-10-31T02:16:51;99654.56;;;10.37;92.41
80712;BME280;70078;51.596;5.678;2023-10-31T02:19:19;99665.72;;;10.47;92.54
80712;BME280;70078;51.596;5.678;2023-10-31T02:21:44;99667.16;;;10.49;92.56
80712;BME280;70078;51.596;5.678;2023-10-31T02:24:10;99662.22;;;10.46;92.70
80712;BME280;70078;51.596;5.678;2023-10-31T02:26:35;99644.72;;;10.37;92.71
80712;BME280;70078;51.596;5.678;2023-10-31T02:29:04;99647.19;;;10.39;92.27
80712;BME280;70078;51.596;5.678;2023-10-31T02:31:29;99623.13;;;10.32;92.00
80712;BME280;70078;51.596;5.678;2023-10-31T02:33:55;99664.31;;;10.51;92.12
80712;BME280;70078;51.596;5.678;2023-10-31T02:36:21;99598.53;;;10.09;92.19
80712;BME280;70078;51.596;5.678;2023-10-31T02:38:46;99613.13;;;10.13;92.71
80712;BME280;70078;51.596;5.678;2023-10-31T02:41:12;99643.22;;;10.28;92.26
80712;BME280;70078;51.596;5.678;2023-10-31T02:43:38;99664.28;;;10.44;92.42
80712;BME280;70078;51.596;5.678;2023-10-31T02:46:03;99683.88;;;10.58;92.39
80712;BME280;70078;51.596;5.678;2023-10-31T02:48:29;99687.53;;;10.57;92.61
80712;BME280;70078;51.596;5.678;2023-10-31T02:50:57;99649.00;;;10.32;93.17
80712;BME280;70078;51.596;5.678;2023-10-31T02:53:23;99655.91;;;10.26;93.18
80712;BME280;70078;51.596;5.678;2023-10-31T02:55:48;99692.88;;;10.57;92.97
80712;BME280;70078;51.596;5.678;2023-10-31T02:58:13;99679.00;;;10.40;92.61
80712;BME280;70078;51.596;5.678;2023-10-31T03:00:39;99660.94;;;10.36;92.65
80712;BME280;70078;51.596;5.678;2023-10-31T03:03:04;99691.44;;;10.54;92.94
80712;BME280;70078;51.596;5.678;2023-10-31T03:05:30;99682.41;;;10.55;92.79
80712;BME280;70078;51.596;5.678;2023-10-31T03:07:55;99693.75;;;10.64;92.49
80712;BME280;70078;51.596;5.678;2023-10-31T03:10:21;99691.88;;;10.58;92.61
80712;BME280;70078;51.596;5.678;2023-10-31T03:12:46;99706.28;;;10.64;92.71
80712;BME280;70078;51.596;5.678;2023-10-31T03:15:11;99686.50;;;10.51;92.93
80712;BME280;70078;51.596;5.678;2023-10-31T03:17:37;99670.44;;;10.45;92.83
80712;BME280;70078;51.596;5.678;2023-10-31T03:20:02;99709.97;;;10.63;92.78
80712;BME280;70078;51.596;5.678;2023-10-31T03:22:28;99708.72;;;10.59;93.31
80712;BME280;70078;51.596;5.678;2023-10-31T03:24:53;99712.00;;;10.61;93.09
80712;BME280;70078;51.596;5.678;2023-10-31T03:27:19;99719.41;;;10.59;93.10
80712;BME280;70078;51.596;5.678;2023-10-31T03:29:44;99716.94;;;10.64;93.22
80712;BME280;70078;51.596;5.678;2023-10-31T03:32:09;99669.94;;;10.35;93.53
80712;BME280;70078;51.596;5.678;2023-10-31T03:34:35;99663.16;;;10.32;93.68
80712;BME280;70078;51.596;5.678;2023-10-31T03:37:00;99725.22;;;10.69;93.22
80712;BME280;70078;51.596;5.678;2023-10-31T03:39:25;99660.22;;;10.27;93.07
80712;BME280;70078;51.596;5.678;2023-10-31T03:41:51;99683.72;;;10.38;92.98
80712;BME280;70078;51.596;5.678;2023-10-31T03:44:16;99727.69;;;10.70;93.01
80712;BME280;70078;51.596;5.678;2023-10-31T03:46:41;99712.78;;;10.54;92.87
80712;BME280;70078;51.596;5.678;2023-10-31T03:49:06;99730.69;;;10.61;93.07
80712;BME280;70078;51.596;5.678;2023-10-31T03:51:35;99717.34;;;10.61;92.64
80712;BME280;70078;51.596;5.678;2023-10-31T03:54:00;99726.31;;;10.53;92.87
80712;BME280;70078;51.596;5.678;2023-10-31T03:56:26;99747.38;;;10.69;93.01
80712;BME280;70078;51.596;5.678;2023-10-31T03:58:51;99733.72;;;10.57;92.43
80712;BME280;70078;51.596;5.678;2023-10-31T04:01:16;99743.28;;;10.67;92.44
80712;BME280;70078;51.596;5.678;2023-10-31T04:03:41;99752.31;;;10.72;92.71
80712;BME280;70078;51.596;5.678;2023-10-31T04:06:07;99736.81;;;10.54;93.07
80712;BME280;70078;51.596;5.678;2023-10-31T04:08:32;99746.50;;;10.62;92.70
80712;BME280;70078;51.596;5.678;2023-10-31T04:10:58;99754.31;;;10.64;93.14
80712;BME280;70078;51.596;5.678;2023-10-31T04:13:23;99773.69;;;10.72;93.14
80712;BME280;70078;51.596;5.678;2023-10-31T04:15:48;99730.59;;;10.47;92.87
80712;BME280;70078;51.596;5.678;2023-10-31T04:18:14;99735.34;;;10.52;93.06
80712;BME280;70078;51.596;5.678;2023-10-31T04:20:39;99719.84;;;10.41;93.09
80712;BME280;70078;51.596;5.678;2023-10-31T04:23:05;99762.53;;;10.62;92.79
80712;BME280;70078;51.596;5.678;2023-10-31T04:25:30;99778.25;;;10.78;93.04
80712;BME280;70078;51.596;5.678;2023-10-31T04:27:56;99786.88;;;10.80;93.18
80712;BME280;70078;51.596;5.678;2023-10-31T04:30:21;99790.56;;;10.79;93.11
80712;BME280;70078;51.596;5.678;2023-10-31T04:32:46;99740.50;;;10.53;93.35
80712;BME280;70078;51.596;5.678;2023-10-31T04:35:12;99760.53;;;10.71;92.91
80712;BME280;70078;51.596;5.678;2023-10-31T04:37:37;99765.09;;;10.77;92.79
80712;BME280;70078;51.596;5.678;2023-10-31T04:40:03;99792.94;;;10.89;93.11
80712;BME280;70078;51.596;5.678;2023-10-31T04:42:28;99750.63;;;10.65;91.96
80712;BME280;70078;51.596;5.678;2023-10-31T04:44:53;99762.84;;;10.74;92.10
80712;BME280;70078;51.596;5.678;2023-10-31T04:47:19;99788.72;;;10.80;92.07
80712;BME280;70078;51.596;5.678;2023-10-31T04:49:45;99787.72;;;10.81;91.98
80712;BME280;70078;51.596;5.678;2023-10-31T04:52:10;99758.47;;;10.66;91.57
80712;BME280;70078;51.596;5.678;2023-10-31T04:54:35;99813.25;;;10.90;91.78
80712;BME280;70078;51.596;5.678;2023-10-31T04:57:01;99782.34;;;10.74;91.91
80712;BME280;70078;51.596;5.678;2023-10-31T04:59:26;99787.81;;;10.66;91.79
80712;BME280;70078;51.596;5.678;2023-10-31T05:01:51;99756.19;;;10.42;91.79
80712;BME280;70078;51.596;5.678;2023-10-31T05:04:17;99790.78;;;10.56;91.74
80712;BME280;70078;51.596;5.678;2023-10-31T05:06:43;99831.69;;;10.85;91.80
80712;BME280;70078;51.596;5.678;2023-10-31T05:09:08;99823.88;;;10.83;91.41
80712;BME280;70078;51.596;5.678;2023-10-31T05:11:35;99839.03;;;10.76;91.41
80712;BME280;70078;51.596;5.678;2023-10-31T05:14:00;99836.97;;;10.78;91.67
80712;BME280;70078;51.596;5.678;2023-10-31T05:16:26;99836.16;;;10.78;91.82
80712;BME280;70078;51.596;5.678;2023-10-31T05:18:51;99836.59;;;10.81;91.17
80712;BME280;70078;51.596;5.678;2023-10-31T05:21:20;99779.50;;;10.33;91.62
80712;BME280;70078;51.596;5.678;2023-10-31T05:23:46;99814.31;;;10.46;91.93
80712;BME280;70078;51.596;5.678;2023-10-31T05:26:11;99815.34;;;10.45;92.04
80712;BME280;70078;51.596;5.678;2023-10-31T05:28:36;99819.09;;;10.51;91.90
80712;BME280;70078;51.596;5.678;2023-10-31T05:31:02;99818.06;;;10.52;91.94
80712;BME280;70078;51.596;5.678;2023-10-31T05:33:28;99799.88;;;10.41;92.03
80712;BME280;70078;51.596;5.678;2023-10-31T05:35:53;99840.94;;;10.61;92.21
80712;BME280;70078;51.596;5.678;2023-10-31T05:38:19;99825.41;;;10.50;92.05
80712;BME280;70078;51.596;5.678;2023-10-31T05:40:44;99845.38;;;10.54;91.96
80712;BME280;70078;51.596;5.678;2023-10-31T05:43:10;99827.38;;;10.41;92.03
80712;BME280;70078;51.596;5.678;2023-10-31T05:45:35;99838.06;;;10.41;91.89
80712;BME280;70078;51.596;5.678;2023-10-31T05:48:01;99850.66;;;10.47;91.39
80712;BME280;70078;51.596;5.678;2023-10-31T05:50:26;99852.44;;;10.40;92.22
80712;BME280;70078;51.596;5.678;2023-10-31T05:52:51;99798.09;;;10.05;92.30
80712;BME280;70078;51.596;5.678;2023-10-31T05:55:17;99851.91;;;10.30;92.11
80712;BME280;70078;51.596;5.678;2023-10-31T05:57:42;99883.41;;;10.41;92.16
80712;BME280;70078;51.596;5.678;2023-10-31T06:00:07;99877.25;;;10.41;92.35
80712;BME280;70078;51.596;5.678;2023-10-31T06:02:33;99871.34;;;10.24;92.28
80712;BME280;70078;51.596;5.678;2023-10-31T06:04:59;99891.34;;;10.35;92.39
80712;BME280;70078;51.596;5.678;2023-10-31T06:07:24;99876.88;;;10.22;92.69
80712;BME280;70078;51.596;5.678;2023-10-31T06:09:49;99897.50;;;10.35;92.75
80712;BME280;70078;51.596;5.678;2023-10-31T06:12:15;99881.00;;;10.25;92.64
80712;BME280;70078;51.596;5.678;2023-10-31T06:14:40;99903.50;;;10.37;92.89
80712;BME280;70078;51.596;5.678;2023-10-31T06:17:06;99914.59;;;10.41;92.92
80712;BME280;70078;51.596;5.678;2023-10-31T06:19:34;99910.03;;;10.35;93.09
80712;BME280;70078;51.596;5.678;2023-10-31T06:22:00;99860.03;;;10.07;93.01
80712;BME280;70078;51.596;5.678;2023-10-31T06:24:25;99921.44;;;10.43;93.12
80712;BME280;70078;51.596;5.678;2023-10-31T06:26:51;99872.34;;;10.08;93.24
80712;BME280;70078;51.596;5.678;2023-10-31T06:29:17;99905.00;;;10.25;93.10
80712;BME280;70078;51.596;5.678;2023-10-31T06:31:43;99934.59;;;10.45;93.01
80712;BME280;70078;51.596;5.678;2023-10-31T06:34:08;99922.41;;;10.42;93.17
80712;BME280;70078;51.596;5.678;2023-10-31T06:36:33;99926.19;;;10.48;92.85
80712;BME280;70078;51.596;5.678;2023-10-31T06:38:59;99902.13;;;10.26;93.32
80712;BME280;70078;51.596;5.678;2023-10-31T06:41:24;99933.38;;;10.47;92.47
80712;BME280;70078;51.596;5.678;2023-10-31T06:43:49;99895.03;;;10.19;92.61
80712;BME280;70078;51.596;5.678;2023-10-31T06:46:15;99886.06;;;10.05;92.34
80712;BME280;70078;51.596;5.678;2023-10-31T06:48:41;99897.53;;;10.20;91.88
80712;BME280;70078;51.596;5.678;2023-10-31T06:51:06;99952.88;;;10.48;92.33
80712;BME280;70078;51.596;5.678;2023-10-31T06:53:32;99898.47;;;10.13;92.13
80712;BME280;70078;51.596;5.678;2023-10-31T06:55:57;99950.41;;;10.46;92.63
80712;BME280;70078;51.596;5.678;2023-10-31T06:58:22;99921.47;;;10.28;92.17
80712;BME280;70078;51.596;5.678;2023-10-31T07:00:47;99953.25;;;10.45;92.17
80712;BME280;70078;51.596;5.678;2023-10-31T07:03:13;99943.25;;;10.32;92.49
80712;BME280;70078;51.596;5.678;2023-10-31T07:05:41;99962.63;;;10.41;92.20
80712;BME280;70078;51.596;5.678;2023-10-31T07:08:07;99929.00;;;10.10;92.43
80712;BME280;70078;51.596;5.678;2023-10-31T07:10:32;99960.53;;;10.36;92.56
80712;BME280;70078;51.596;5.678;2023-10-31T07:12:58;99969.06;;;10.46;92.57
80712;BME280;70078;51.596;5.678;2023-10-31T07:15:24;99974.69;;;10.51;91.81
80712;BME280;70078;51.596;5.678;2023-10-31T07:17:49;99976.34;;;10.52;92.08
80712;BME280;70078;51.596;5.678;2023-10-31T07:20:15;99958.22;;;10.33;92.49
80712;BME280;70078;51.596;5.678;2023-10-31T07:22:40;99955.22;;;10.36;92.33
80712;BME280;70078;51.596;5.678;2023-10-31T07:25:06;99937.53;;;10.35;91.66
80712;BME280;70078;51.596;5.678;2023-10-31T07:27:32;99971.31;;;10.43;92.20
80712;BME280;70078;51.596;5.678;2023-10-31T07:29:57;99948.19;;;10.35;92.17
80712;BME280;70078;51.596;5.678;2023-10-31T07:32:22;99954.44;;;10.42;92.04
80712;BME280;70078;51.596;5.678;2023-10-31T07:34:48;99941.22;;;10.34;91.99
80712;BME280;70078;51.596;5.678;2023-10-31T07:37:13;99962.91;;;10.46;92.21
80712;BME280;70078;51.596;5.678;2023-10-31T07:39:38;99966.41;;;10.46;92.34
80712;BME280;70078;51.596;5.678;2023-10-31T07:42:04;99957.97;;;10.43;93.04
80712;BME280;70078;51.596;5.678;2023-10-31T07:44:29;99970.81;;;10.54;92.35
80712;BME280;70078;51.596;5.678;2023-10-31T07:46:55;99936.69;;;10.35;92.23
80712;BME280;70078;51.596;5.678;2023-10-31T07:49:20;99967.75;;;10.57;92.15
80712;BME280;70078;51.596;5.678;2023-10-31T07:51:45;99980.91;;;10.73;92.11
80712;BME280;70078;51.596;5.678;2023-10-31T07:54:13;99981.06;;;10.72;91.70
80712;BME280;70078;51.596;5.678;2023-10-31T07:56:38;99987.09;;;10.80;92.04
80712;BME280;70078;51.596;5.678;2023-10-31T07:59:05;99993.66;;;10.78;92.36
80712;BME280;70078;51.596;5.678;2023-10-31T08:01:31;99974.91;;;10.71;91.71
80712;BME280;70078;51.596;5.678;2023-10-31T08:03:56;99979.06;;;10.74;91.15
80712;BME280;70078;51.596;5.678;2023-10-31T08:06:21;99987.41;;;10.71;91.06
80712;BME280;70078;51.596;5.678;2023-10-31T08:08:47;99993.03;;;10.76;91.47
80712;BME280;70078;51.596;5.678;2023-10-31T08:11:12;100004.22;;;10.86;90.78
80712;BME280;70078;51.596;5.678;2023-10-31T08:13:38;100005.16;;;10.78;90.98
80712;BME280;70078;51.596;5.678;2023-10-31T08:16:05;99968.03;;;10.62;91.25
80712;BME280;70078;51.596;5.678;2023-10-31T08:18:31;99981.31;;;10.77;91.63
80712;BME280;70078;51.596;5.678;2023-10-31T08:20:56;100006.41;;;10.97;91.68
80712;BME280;70078;51.596;5.678;2023-10-31T08:23:22;100013.00;;;11.01;92.16
80712;BME280;70078;51.596;5.678;2023-10-31T08:25:47;100011.22;;;11.08;91.84
80712;BME280;70078;51.596;5.678;2023-10-31T08:28:12;100020.16;;;11.16;91.72
80712;BME280;70078;51.596;5.678;2023-10-31T08:30:38;100003.09;;;11.17;91.59
80712;BME280;70078;51.596;5.678;2023-10-31T08:33:04;99953.28;;;10.88;91.39
80712;BME280;70078;51.596;5.678;2023-10-31T08:35:29;100022.31;;;11.27;91.47
80712;BME280;70078;51.596;5.678;2023-10-31T08:37:55;100015.38;;;11.32;91.30
80712;BME280;70078;51.596;5.678;2023-10-31T08:40:20;100016.59;;;11.30;91.49
80712;BME280;70078;51.596;5.678;2023-10-31T08:42:45;100014.53;;;11.32;90.98
80712;BME280;70078;51.596;5.678;2023-10-31T08:45:11;100034.00;;;11.47;90.94
80712;BME280;70078;51.596;5.678;2023-10-31T08:47:36;100032.34;;;11.46;90.79
80712;BME280;70078;51.596;5.678;2023-10-31T08:50:01;100032.28;;;11.39;90.57
80712;BME280;70078;51.596;5.678;2023-10-31T08:52:27;100036.13;;;11.52;90.58
80712;BME280;70078;51.596;5.678;2023-10-31T08:54:52;100020.09;;;11.30;90.41
80712;BME280;70078;51.596;5.678;2023-10-31T08:57:17;100022.00;;;11.36;89.84
80712;BME280;70078;51.596;5.678;2023-10-31T08:59:43;100045.59;;;11.54;89.95
80712;BME280;70078;51.596;5.678;2023-10-31T09:02:08;100017.47;;;11.37;90.30
80712;BME280;70078;51.596;5.678;2023-10-31T09:04:33;100039.34;;;11.47;89.98
80712;BME280;70078;51.596;5.678;2023-10-31T09:07:00;100064.22;;;11.69;89.73
80712;BME280;70078;51.596;5.678;2023-10-31T09:09:25;100063.47;;;11.75;90.26
80712;BME280;70078;51.596;5.678;2023-10-31T09:11:50;100061.59;;;11.97;89.72
80712;BME280;70078;51.596;5.678;2023-10-31T09:14:16;100053.31;;;11.92;89.23
80712;BME280;70078;51.596;5.678;2023-10-31T09:16:41;100028.56;;;11.83;89.58
80712;BME280;70078;51.596;5.678;2023-10-31T09:19:06;100062.06;;;12.07;87.95
80712;BME280;70078;51.596;5.678;2023-10-31T09:21:31;100070.41;;;12.19;88.53
80712;BME280;70078;51.596;5.678;2023-10-31T09:23:57;100070.03;;;12.29;88.24
80712;BME280;70078;51.596;5.678;2023-10-31T09:26:22;100072.69;;;12.22;87.88
80712;BME280;70078;51.596;5.678;2023-10-31T09:28:47;100097.31;;;12.45;87.78
80712;BME280;70078;51.596;5.678;2023-10-31T09:31:18;100098.16;;;12.46;86.94
80712;BME280;70078;51.596;5.678;2023-10-31T09:33:45;100100.03;;;12.52;87.01
80712;BME280;70078;51.596;5.678;2023-10-31T09:36:10;100100.53;;;12.62;87.27
80712;BME280;70078;51.596;5.678;2023-10-31T09:38:36;100092.31;;;12.70;86.61
80712;BME280;70078;51.596;5.678;2023-10-31T09:41:02;100109.09;;;12.86;85.81
80712;BME280;70078;51.596;5.678;2023-10-31T09:43:30;100088.63;;;12.71;85.05
80712;BME280;70078;51.596;5.678;2023-10-31T09:45:57;100091.13;;;12.80;85.13
80712;BME280;70078;51.596;5.678;2023-10-31T09:48:22;100107.91;;;13.01;84.87
80712;BME280;70078;51.596;5.678;2023-10-31T09:50:48;100113.47;;;13.00;85.55
80712;BME280;70078;51.596;5.678;2023-10-31T09:53:14;100124.88;;;13.15;85.89
80712;BME280;70078;51.596;5.678;2023-10-31T09:55:42;100133.75;;;13.22;84.43
80712;BME280;70078;51.596;5.678;2023-10-31T09:58:08;100127.78;;;13.20;84.55
80712;BME280;70078;51.596;5.678;2023-10-31T10:00:35;100132.16;;;13.28;83.55
80712;BME280;70078;51.596;5.678;2023-10-31T10:03:03;100133.00;;;13.35;82.83
80712;BME280;70078;51.596;5.678;2023-10-31T10:05:31;100127.03;;;13.40;83.07
80712;BME280;70078;51.596;5.678;2023-10-31T10:07:57;100120.38;;;13.22;82.01
80712;BME280;70078;51.596;5.678;2023-10-31T10:10:22;100145.97;;;13.25;81.97
80712;BME280;70078;51.596;5.678;2023-10-31T10:12:47;100130.38;;;13.07;81.43
80712;BME280;70078;51.596;5.678;2023-10-31T10:15:13;100147.81;;;13.24;82.28
80712;BME280;70078;51.596;5.678;2023-10-31T10:17:38;100160.63;;;13.36;83.03
80712;BME280;70078;51.596;5.678;2023-10-31T10:20:08;100161.75;;;13.68;83.26
80712;BME280;70078;51.596;5.678;2023-10-31T10:22:39;100170.44;;;13.89;82.61
80712;BME280;70078;51.596;5.678;2023-10-31T10:25:06;100153.94;;;13.93;80.98
80712;BME280;70078;51.596;5.678;2023-10-31T10:27:32;100158.91;;;14.22;81.00
80712;BME280;70078;51.596;5.678;2023-10-31T10:29:57;100161.38;;;14.57;79.40
80712;BME280;70078;51.596;5.678;2023-10-31T10:32:22;100172.13;;;14.70;81.58
80712;BME280;70078;51.596;5.678;2023-10-31T10:34:48;100180.38;;;14.75;79.42
80712;BME280;70078;51.596;5.678;2023-10-31T10:37:13;100179.34;;;14.76;78.08
80712;BME280;70078;51.596;5.678;2023-10-31T10:39:40;100189.06;;;14.77;76.97
80712;BME280;70078;51.596;5.678;2023-10-31T10:42:09;100185.34;;;14.71;76.08
80712;BME280;70078;51.596;5.678;2023-10-31T10:44:36;100191.50;;;14.85;76.23
80712;BME280;70078;51.596;5.678;2023-10-31T10:47:05;100184.75;;;14.56;76.01
80712;BME280;70078;51.596;5.678;2023-10-31T10:49:36;100203.75;;;14.68;76.05
80712;BME280;70078;51.596;5.678;2023-10-31T10:52:13;100196.94;;;14.46;76.20
80712;BME280;70078;51.596;5.678;2023-10-31T10:55:03;100203.75;;;14.55;76.65
80712;BME280;70078;51.596;5.678;2023-10-31T10:57:36;100209.72;;;14.57;76.01
80712;BME280;70078;51.596;5.678;2023-10-31T11:00:04;100187.00;;;14.39;76.61
80712;BME280;70078;51.596;5.678;2023-10-31T11:02:30;100188.03;;;14.25;77.05
80712;BME280;70078;51.596;5.678;2023-10-31T11:04:56;100201.66;;;14.17;77.02
80712;BME280;70078;51.596;5.678;2023-10-31T11:07:22;100194.03;;;14.07;76.53
80712;BME280;70078;51.596;5.678;2023-10-31T11:09:49;100196.03;;;13.85;76.36
80712;BME280;70078;51.596;5.678;2023-10-31T11:12:14;100206.78;;;13.85;77.43
80712;BME280;70078;51.596;5.678;2023-10-31T11:14:41;100218.13;;;13.87;77.31
80712;BME280;70078;51.596;5.678;2023-10-31T11:17:17;100209.84;;;13.69;77.55
80712;BME280;70078;51.596;5.678;2023-10-31T11:19:46;100171.81;;;13.46;77.14
80712;BME280;70078;51.596;5.678;2023-10-31T11:22:11;100194.28;;;13.38;77.78
80712;BME280;70078;51.596;5.678;2023-10-31T11:24:37;100189.91;;;13.30;77.48
80712;BME280;70078;51.596;5.678;2023-10-31T11:27:05;100198.38;;;13.34;77.49
80712;BME280;70078;51.596;5.678;2023-10-31T11:29:31;100196.72;;;13.33;78.03
80712;BME280;70078;51.596;5.678;2023-10-31T11:31:57;100206.19;;;13.36;79.17
80712;BME280;70078;51.596;5.678;2023-10-31T11:34:23;100211.63;;;13.49;78.99
80712;BME280;70078;51.596;5.678;2023-10-31T11:36:51;100213.66;;;13.40;77.70
80712;BME280;70078;51.596;5.678;2023-10-31T11:39:21;100228.56;;;13.56;79.08
80712;BME280;70078;51.596;5.678;2023-10-31T11:41:55;100226.91;;;13.55;78.25
80712;BME280;70078;51.596;5.678;2023-10-31T11:44:27;100216.53;;;13.39;78.18
80712;BME280;70078;51.596;5.678;2023-10-31T11:46:52;100223.31;;;13.35;78.29
80712;BME280;70078;51.596;5.678;2023-10-31T11:49:47;100228.81;;;13.20;78.81
80712;BME280;70078;51.596;5.678;2023-10-31T11:52:16;100224.13;;;13.35;79.02
80712;BME280;70078;51.596;5.678;2023-10-31T11:54:41;100212.16;;;13.24;79.75
80712;BME280;70078;51.596;5.678;2023-10-31T11:57:07;100192.88;;;13.14;79.81
80712;BME280;70078;51.596;5.678;2023-10-31T11:59:39;100228.06;;;13.32;79.99
80712;BME280;70078;51.596;5.678;2023-10-31T12:02:17;100216.91;;;13.29;79.57
80712;BME280;70078;51.596;5.678;2023-10-31T12:04:43;100220.00;;;13.32;79.56
80712;BME280;70078;51.596;5.678;2023-10-31T12:07:09;100216.09;;;13.35;79.79
80712;BME280;70078;51.596;5.678;2023-10-31T12:09:48;100220.63;;;13.35;79.38
80712;BME280;70078;51.596;5.678;2023-10-31T12:12:13;100213.22;;;13.37;79.45
80712;BME280;70078;51.596;5.678;2023-10-31T12:14:39;100210.19;;;13.46;79.80
80712;BME280;70078;51.596;5.678;2023-10-31T12:17:05;100212.25;;;13.57;79.64
80712;BME280;70078;51.596;5.678;2023-10-31T12:19:31;100223.53;;;14.01;79.77
80712;BME280;70078;51.596;5.678;2023-10-31T12:21:57;100235.72;;;14.10;78.01
80712;BME280;70078;51.596;5.678;2023-10-31T12:24:22;100239.03;;;14.19;76.69
80712;BME280;70078;51.596;5.678;2023-10-31T12:26:48;100244.00;;;14.41;77.53
80712;BME280;70078;51.596;5.678;2023-10-31T12:29:15;100238.25;;;14.58;77.60
80712;BME280;70078;51.596;5.678;2023-10-31T12:31:52;100231.00;;;14.85;75.27
80712;BME280;70078;51.596;5.678;2023-10-31T12:34:23;100169.63;;;14.75;74.22
80712;BME280;70078;51.596;5.678;2023-10-31T12:36:51;100224.44;;;15.39;75.01
80712;BME280;70078;51.596;5.678;2023-10-31T12:39:18;100214.41;;;15.72;74.59
80712;BME280;70078;51.596;5.678;2023-10-31T12:41:45;100245.69;;;16.30;73.90
80712;BME280;70078;51.596;5.678;2023-10-31T12:44:14;100242.91;;;16.43;72.67
80712;BME280;70078;51.596;5.678;2023-10-31T12:46:41;100231.91;;;16.70;71.04
80712;BME280;70078;51.596;5.678;2023-10-31T12:49:16;100247.16;;;16.82;69.56
80712;BME280;70078;51.596;5.678;2023-10-31T12:52:04;100230.22;;;16.75;71.53